createdAt,value
2022-09-16T00:02:17.353Z,98.90
2022-09-16T00:04:43.965Z,99.20
2022-09-16T00:07:10.845Z,99.80
2022-09-16T00:09:38.337Z,99.30
2022-09-16T00:12:05.676Z,99.80
2022-09-16T00:14:32.430Z,99.70
2022-09-16T00:16:59.031Z,99.60
2022-09-16T00:19:25.596Z,99.70
2022-09-16T00:21:52.125Z,99.10
2022-09-16T00:24:18.699Z,99.90
2022-09-16T00:26:45.584Z,99.90
2022-09-16T00:29:12.122Z,99.70
2022-09-16T00:31:38.797Z,99.90
2022-09-16T00:34:05.876Z,98.60
2022-09-16T00:36:32.432Z,99.10
2022-09-16T00:38:58.958Z,99.30
2022-09-16T00:41:26.738Z,99.80
2022-09-16T00:43:58.675Z,99.90
2022-09-16T00:46:38.021Z,99.80
2022-09-16T00:49:10.065Z,99.90
2022-09-16T00:51:37.489Z,99.90
2022-09-16T00:54:05.663Z,99.90
2022-09-16T00:56:35.853Z,99.90
2022-09-16T00:59:08.563Z,99.90
2022-09-16T01:01:35.756Z,99.90
2022-09-16T01:04:04.137Z,99.90
2022-09-16T01:06:30.954Z,99.90
2022-09-16T01:08:57.854Z,99.90
2022-09-16T01:11:24.586Z,99.90
2022-09-16T01:13:51.771Z,99.90
2022-09-16T01:16:24.888Z,99.90
2022-09-16T01:18:51.464Z,99.90
2022-09-16T01:21:34.012Z,99.90
2022-09-16T01:24:01.431Z,99.90
2022-09-16T01:26:47.892Z,99.90
2022-09-16T01:29:38.264Z,99.90
2022-09-16T01:32:05.487Z,99.90
2022-09-16T01:34:35.049Z,99.90
2022-09-16T01:37:01.638Z,99.90
2022-09-16T01:39:48.189Z,99.90
2022-09-16T01:42:30.307Z,99.90
2022-09-16T01:44:56.803Z,99.90
2022-09-16T01:47:29.401Z,99.90
2022-09-16T01:50:06.279Z,99.90
2022-09-16T01:52:32.953Z,99.90
2022-09-16T01:55:01.379Z,99.90
2022-09-16T01:58:08.403Z,99.90
2022-09-16T02:00:35.425Z,99.90
2022-09-16T02:03:13.535Z,99.90
2022-09-16T02:05:48.796Z,99.90
2022-09-16T02:08:18.371Z,99.90
2022-09-16T02:10:47.598Z,99.90
2022-09-16T02:13:19.423Z,99.90
2022-09-16T02:15:48.894Z,99.60
2022-09-16T02:18:16.939Z,99.10
2022-09-16T02:20:45.625Z,98.90
2022-09-16T02:23:15.575Z,99.10
2022-09-16T02:25:44.254Z,99.30
2022-09-16T02:28:13.754Z,99.60
2022-09-16T02:30:45.724Z,99.30
2022-09-16T02:33:13.496Z,98.60
2022-09-16T02:35:41.190Z,99.00
2022-09-16T02:38:12.250Z,99.00
2022-09-16T02:40:43.761Z,99.30
2022-09-16T02:43:10.419Z,99.90
2022-09-16T02:45:49.619Z,99.90
2022-09-16T02:48:19.216Z,99.50
2022-09-16T02:50:52.842Z,99.00
2022-09-16T02:53:38.364Z,99.40
2022-09-16T02:56:10.039Z,99.10
2022-09-16T02:58:36.629Z,99.90
2022-09-16T03:01:03.754Z,99.30
2022-09-16T03:03:30.343Z,99.10
2022-09-16T03:06:06.284Z,99.00
2022-09-16T03:08:33.819Z,98.60
2022-09-16T03:11:04.013Z,98.90
2022-09-16T03:13:40.268Z,98.90
2022-09-16T03:16:17.261Z,98.60
2022-09-16T03:18:52.996Z,98.30
2022-09-16T03:21:23.175Z,97.10
2022-09-16T03:23:57.515Z,98.40
2022-09-16T03:26:33.597Z,97.40
2022-09-16T03:29:00.525Z,97.00
2022-09-16T03:31:31.453Z,97.90
2022-09-16T03:34:05.846Z,97.60
2022-09-16T03:36:34.420Z,96.60
2022-09-16T03:39:01.775Z,96.30
2022-09-16T03:41:32.894Z,96.80
2022-09-16T03:44:03.677Z,97.30
2022-09-16T03:46:31.566Z,96.70
2022-09-16T03:48:58.923Z,96.70
2022-09-16T03:51:26.114Z,97.70
2022-09-16T03:53:53.150Z,98.00
2022-09-16T03:56:19.903Z,98.80
2022-09-16T03:58:47.585Z,99.10
2022-09-16T04:01:14.398Z,99.90
2022-09-16T04:03:41.220Z,99.90
2022-09-16T04:06:07.793Z,99.90
2022-09-16T04:08:34.329Z,99.90
2022-09-16T04:11:02.273Z,99.90
2022-09-16T04:13:30.151Z,99.90
2022-09-16T04:15:56.968Z,99.90
2022-09-16T04:18:23.808Z,99.90
2022-09-16T04:20:50.615Z,99.90
2022-09-16T04:23:17.131Z,99.90
2022-09-16T04:25:43.779Z,99.90
2022-09-16T04:28:10.368Z,99.90
2022-09-16T04:30:37.094Z,99.90
2022-09-16T04:33:06.711Z,99.90
2022-09-16T04:35:33.294Z,99.90
2022-09-16T04:37:59.839Z,99.90
2022-09-16T04:40:26.447Z,99.90
2022-09-16T04:42:53.003Z,99.90
2022-09-16T04:45:19.586Z,99.90
2022-09-16T04:47:46.203Z,99.90
2022-09-16T04:50:12.746Z,99.90
2022-09-16T04:52:39.353Z,99.90
2022-09-16T04:55:06.145Z,99.90
2022-09-16T04:57:32.841Z,99.90
2022-09-16T04:59:59.508Z,99.90
2022-09-16T05:02:26.252Z,99.90
2022-09-16T05:04:52.819Z,99.90
2022-09-16T05:07:19.634Z,99.90
2022-09-16T05:09:46.886Z,99.90
2022-09-16T05:12:13.428Z,99.90
2022-09-16T05:14:39.960Z,99.90
2022-09-16T05:17:07.396Z,99.90
2022-09-16T05:19:34.122Z,99.90
2022-09-16T05:22:00.811Z,99.90
2022-09-16T05:24:27.354Z,99.90
2022-09-16T05:26:53.908Z,99.90
2022-09-16T05:29:20.570Z,99.90
2022-09-16T05:31:47.676Z,99.90
2022-09-16T05:34:24.909Z,99.90
2022-09-16T05:36:54.008Z,99.90
2022-09-16T05:39:24.003Z,99.90
2022-09-16T05:41:56.481Z,99.90
2022-09-16T05:44:23.472Z,99.90
2022-09-16T05:46:50.104Z,99.90
2022-09-16T05:49:21.125Z,99.90
2022-09-16T05:51:48.520Z,99.90
2022-09-16T05:54:15.209Z,99.90
2022-09-16T05:56:42.517Z,99.90
2022-09-16T05:59:10.991Z,99.90
2022-09-16T06:01:38.750Z,99.90
2022-09-16T06:04:06.594Z,99.90
2022-09-16T06:06:51.142Z,99.90
2022-09-16T06:09:22.305Z,99.90
2022-09-16T06:11:50.133Z,99.90
2022-09-16T06:14:17.218Z,99.90
2022-09-16T06:16:44.373Z,99.90
2022-09-16T06:19:13.062Z,99.90
2022-09-16T06:21:40.371Z,99.90
2022-09-16T06:24:09.106Z,99.90
2022-09-16T06:26:36.675Z,99.90
2022-09-16T06:29:03.525Z,99.90
2022-09-16T06:31:30.118Z,99.90
2022-09-16T06:33:57.818Z,99.90
2022-09-16T06:36:26.673Z,99.90
2022-09-16T06:38:53.229Z,99.50
2022-09-16T06:41:20.483Z,99.90
2022-09-16T06:43:47.531Z,98.40
2022-09-16T06:46:18.251Z,99.50
2022-09-16T06:48:50.532Z,98.60
2022-09-16T06:51:18.215Z,97.40
2022-09-16T06:53:45.673Z,99.10
2022-09-16T06:56:13.746Z,98.90
2022-09-16T06:58:41.414Z,98.80
2022-09-16T07:01:18.282Z,98.70
2022-09-16T07:03:46.152Z,97.10
2022-09-16T07:06:14.315Z,96.60
2022-09-16T07:08:41.601Z,96.40
2022-09-16T07:11:10.778Z,96.80
2022-09-16T07:13:37.858Z,96.20
2022-09-16T07:16:14.712Z,95.70
2022-09-16T07:18:42.043Z,96.60
2022-09-16T07:21:13.705Z,95.20
2022-09-16T07:23:40.778Z,96.70
2022-09-16T07:26:11.831Z,94.90
2022-09-16T07:28:39.341Z,96.70
2022-09-16T07:31:07.255Z,95.10
2022-09-16T07:33:41.022Z,95.90
2022-09-16T07:36:08.757Z,96.30
2022-09-16T07:38:35.651Z,96.40
2022-09-16T07:41:11.246Z,96.00
2022-09-16T07:43:38.489Z,95.40
2022-09-16T07:46:05.172Z,98.30
2022-09-16T07:48:35.215Z,95.70
2022-09-16T07:51:04.559Z,95.00
2022-09-16T07:53:31.764Z,94.50
2022-09-16T07:56:02.645Z,94.00
2022-09-16T07:58:29.206Z,95.50
2022-09-16T08:00:58.561Z,95.20
2022-09-16T08:03:27.279Z,94.40
2022-09-16T08:05:58.982Z,93.40
2022-09-16T08:08:25.658Z,95.00
2022-09-16T08:10:56.090Z,93.40
2022-09-16T08:13:23.349Z,94.60
2022-09-16T08:15:50.078Z,94.40
2022-09-16T08:18:16.856Z,94.50
2022-09-16T08:20:43.411Z,95.00
2022-09-16T08:23:10.308Z,94.10
2022-09-16T08:25:36.994Z,95.00
2022-09-16T08:28:04.155Z,93.90
2022-09-16T08:30:30.778Z,94.30
2022-09-16T08:32:57.856Z,94.30
2022-09-16T08:35:25.746Z,93.80
2022-09-16T08:37:52.835Z,92.90
2022-09-16T08:42:59.703Z,91.30
2022-09-16T08:45:42.426Z,89.90
2022-09-16T08:48:28.849Z,90.80
2022-09-16T08:50:57.283Z,90.90
2022-09-16T08:53:23.870Z,88.50
2022-09-16T08:55:51.315Z,85.40
2022-09-16T08:58:17.838Z,88.10
2022-09-16T09:00:45.615Z,89.80
2022-09-16T09:03:18.827Z,77.80
2022-09-16T09:05:53.729Z,78.50
2022-09-16T09:08:20.331Z,73.80
2022-09-16T09:11:16.557Z,82.10
2022-09-16T09:13:49.443Z,72.70
2022-09-16T09:16:35.145Z,72.90
2022-09-16T09:19:17.047Z,72.90
2022-09-16T09:21:52.110Z,68.10
2022-09-16T09:24:21.694Z,68.40
2022-09-16T09:26:53.748Z,68.30
2022-09-16T09:29:35.723Z,66.00
2022-09-16T09:32:14.646Z,66.10
2022-09-16T09:34:50.085Z,66.40
2022-09-16T09:37:22.155Z,71.00
2022-09-16T09:39:51.905Z,73.50
2022-09-16T09:42:21.634Z,70.90
2022-09-16T09:44:51.358Z,70.00
2022-09-16T09:47:32.734Z,72.30
2022-09-16T09:50:03.784Z,73.00
2022-09-16T09:52:45.777Z,69.80
2022-09-16T09:55:24.331Z,67.00
2022-09-16T09:57:57.357Z,81.90
2022-09-16T10:00:23.894Z,67.50
2022-09-16T10:02:50.631Z,67.80
2022-09-16T10:05:26.070Z,68.00
2022-09-16T10:07:55.030Z,66.30
2022-09-16T10:10:23.226Z,64.00
2022-09-16T10:12:50.290Z,62.30
2022-09-16T10:15:30.296Z,56.00
2022-09-16T10:17:59.502Z,51.60
2022-09-16T10:20:35.060Z,50.60
2022-09-16T10:23:07.253Z,57.20
2022-09-16T10:25:33.944Z,48.30
2022-09-16T10:28:01.888Z,49.10
2022-09-16T10:30:29.282Z,50.50
2022-09-16T10:32:58.567Z,51.10
2022-09-16T10:35:29.219Z,51.20
2022-09-16T10:37:57.902Z,50.50
2022-09-16T10:40:25.200Z,47.00
2022-09-16T10:42:53.294Z,48.00
2022-09-16T10:45:19.957Z,48.00
2022-09-16T10:47:49.920Z,48.80
2022-09-16T10:50:18.476Z,55.10
2022-09-16T10:52:46.339Z,47.70
2022-09-16T10:55:19.329Z,51.00
2022-09-16T10:57:46.339Z,52.10
2022-09-16T11:00:23.465Z,54.30
2022-09-16T11:02:49.990Z,59.00
2022-09-16T11:05:36.803Z,51.90
2022-09-16T11:08:03.319Z,51.70
2022-09-16T11:10:55.225Z,53.90
2022-09-16T11:13:42.676Z,60.70
2022-09-16T11:16:18.254Z,55.70
2022-09-16T11:18:57.590Z,43.30
2022-09-16T11:21:43.040Z,45.00
2022-09-16T11:24:16.029Z,43.70
2022-09-16T11:26:51.901Z,50.40
2022-09-16T11:29:37.257Z,56.90
2022-09-16T11:32:15.999Z,53.70
2022-09-16T11:34:57.090Z,49.70
2022-09-16T11:37:29.234Z,43.20
2022-09-16T11:39:58.871Z,41.40
2022-09-16T11:42:28.448Z,40.30
2022-09-16T11:44:55.162Z,39.50
2022-09-16T11:47:31.930Z,39.70
2022-09-16T11:50:18.284Z,40.10
2022-09-16T11:53:07.395Z,39.50
2022-09-16T11:55:51.156Z,41.70
2022-09-16T11:58:36.465Z,43.40
2022-09-16T12:01:09.847Z,47.70
2022-09-16T12:03:47.058Z,48.90
2022-09-16T12:06:21.074Z,54.80
2022-09-16T12:08:56.129Z,50.30
2022-09-16T12:11:55.251Z,53.70
2022-09-16T12:14:37.489Z,52.70
2022-09-16T12:17:06.509Z,52.70
2022-09-16T12:19:39.910Z,52.80
2022-09-16T12:22:08.528Z,54.80
2022-09-16T12:24:39.773Z,55.90
2022-09-16T12:27:13.787Z,56.10
2022-09-16T12:29:51.316Z,57.00
2022-09-16T12:32:43.220Z,55.20
2022-09-16T12:35:15.068Z,57.00
2022-09-16T12:37:49.213Z,55.70
2022-09-16T12:40:26.738Z,54.30
2022-09-16T12:43:01.228Z,51.20
2022-09-16T12:45:31.290Z,45.30
2022-09-16T12:47:57.958Z,48.30
2022-09-16T12:50:24.630Z,42.90
2022-09-16T12:53:11.608Z,41.30
2022-09-16T12:56:02.247Z,41.80
2022-09-16T12:58:38.219Z,40.90
2022-09-16T13:01:20.670Z,41.50
2022-09-16T13:03:49.384Z,46.90
2022-09-16T13:06:24.300Z,45.70
2022-09-16T13:08:51.771Z,40.60
2022-09-16T13:14:28.552Z,45.10
2022-09-16T13:16:56.711Z,38.00
2022-09-16T13:19:41.863Z,39.30
2022-09-16T13:22:17.135Z,43.50
2022-09-16T13:24:46.929Z,37.80
2022-09-16T13:27:24.574Z,37.70
2022-09-16T13:29:51.158Z,46.00
2022-09-16T13:32:28.130Z,41.20
2022-09-16T13:35:13.898Z,40.50
2022-09-16T13:37:40.491Z,39.30
2022-09-16T13:40:22.644Z,39.40
2022-09-16T13:42:49.474Z,39.00
2022-09-16T13:45:35.285Z,39.30
2022-09-16T13:48:22.362Z,38.90
2022-09-16T13:50:53.964Z,38.60
2022-09-16T13:53:24.296Z,40.60
2022-09-16T13:55:51.239Z,41.60
2022-09-16T13:58:24.785Z,43.80
2022-09-16T14:01:04.428Z,44.40
2022-09-16T14:03:49.643Z,48.60
2022-09-16T14:06:16.183Z,44.20
2022-09-16T14:09:03.065Z,46.20
2022-09-16T14:11:42.029Z,44.00
2022-09-16T14:14:29.814Z,44.50
2022-09-16T14:16:57.264Z,47.10
2022-09-16T14:19:27.509Z,45.80
2022-09-16T14:22:05.205Z,47.90
2022-09-16T14:24:39.159Z,51.40
2022-09-16T14:27:06.623Z,50.40
2022-09-16T14:29:33.221Z,49.70
2022-09-16T14:32:00.040Z,51.90
2022-09-16T14:34:31.899Z,51.70
2022-09-16T14:36:58.585Z,52.00
2022-09-16T14:39:26.416Z,51.80
2022-09-16T14:42:04.921Z,54.20
2022-09-16T14:44:36.813Z,53.10
2022-09-16T14:47:29.285Z,53.30
2022-09-16T14:50:08.489Z,53.70
2022-09-16T14:52:35.585Z,56.70
2022-09-16T14:55:02.459Z,54.60
2022-09-16T14:57:30.196Z,57.30
2022-09-16T14:59:58.290Z,58.20
2022-09-16T15:02:41.186Z,58.20
2022-09-16T15:05:07.835Z,58.60
2022-09-16T15:07:46.259Z,60.00
2022-09-16T15:10:25.912Z,58.80
2022-09-16T15:12:54.853Z,59.30
2022-09-16T15:15:32.092Z,62.70
2022-09-16T15:18:03.484Z,61.40
2022-09-16T15:20:32.387Z,60.10
2022-09-16T15:22:59.474Z,63.80
2022-09-16T15:25:34.301Z,61.40
2022-09-16T15:28:07.893Z,61.90
2022-09-16T15:30:35.496Z,63.10
2022-09-16T15:33:02.191Z,61.80
2022-09-16T15:35:33.453Z,63.80
2022-09-16T15:38:10.328Z,65.40
2022-09-16T15:40:37.143Z,63.60
2022-09-16T15:43:15.982Z,68.20
2022-09-16T15:45:43.374Z,63.30
2022-09-16T15:48:17.314Z,67.60
2022-09-16T15:50:52.039Z,64.30
2022-09-16T15:53:22.682Z,63.10
2022-09-16T15:55:49.379Z,66.00
2022-09-16T15:58:18.482Z,66.10
2022-09-16T16:01:06.286Z,62.60
2022-09-16T16:03:48.154Z,62.20
2022-09-16T16:06:15.229Z,62.00
2022-09-16T16:08:49.678Z,65.10
2022-09-16T16:11:18.136Z,65.60
2022-09-16T16:13:45.005Z,66.70
2022-09-16T16:16:12.975Z,64.50
2022-09-16T16:18:40.531Z,65.60
2022-09-16T16:21:14.617Z,67.00
2022-09-16T16:23:41.572Z,68.20
2022-09-16T16:26:08.766Z,68.00
2022-09-16T16:28:36.200Z,68.70
2022-09-16T16:31:10.133Z,69.90
2022-09-16T16:33:38.029Z,70.50
2022-09-16T16:36:07.115Z,72.90
2022-09-16T16:38:33.750Z,69.60
2022-09-16T16:41:00.328Z,68.70
2022-09-16T16:43:28.279Z,68.50
2022-09-16T16:45:58.225Z,74.50
2022-09-16T16:48:26.568Z,83.90
2022-09-16T16:51:00.688Z,82.50
2022-09-16T16:53:27.836Z,86.80
2022-09-16T16:55:54.535Z,84.90
2022-09-16T16:58:21.254Z,87.70
2022-09-16T17:00:48.570Z,87.50
2022-09-16T17:03:15.864Z,89.90
2022-09-16T17:05:42.432Z,90.50
2022-09-16T17:08:09.949Z,90.90
2022-09-16T17:10:36.682Z,90.70
2022-09-16T17:13:05.123Z,89.80
2022-09-16T17:15:31.819Z,92.40
2022-09-16T17:17:58.451Z,91.80
2022-09-16T17:20:25.067Z,91.70
2022-09-16T17:22:51.686Z,91.30
2022-09-16T17:25:18.328Z,90.70
2022-09-16T17:27:44.930Z,92.70
2022-09-16T17:30:11.976Z,92.10
2022-09-16T17:32:38.506Z,91.60
2022-09-16T17:35:05.469Z,90.50
2022-09-16T17:37:32.174Z,90.80
2022-09-16T17:39:58.818Z,90.60
2022-09-16T17:42:25.437Z,92.90
2022-09-16T17:44:52.006Z,92.10
2022-09-16T17:47:19.094Z,92.40
2022-09-16T17:49:45.704Z,93.50
2022-09-16T17:52:12.407Z,92.90
2022-09-16T17:54:39.277Z,92.90
2022-09-16T17:57:05.860Z,92.90
2022-09-16T17:59:32.602Z,92.90
2022-09-16T18:01:59.222Z,91.70
2022-09-16T18:04:25.851Z,93.10
2022-09-16T18:06:52.726Z,93.70
2022-09-16T18:09:19.279Z,93.40
2022-09-16T18:11:46.814Z,93.20
2022-09-16T18:14:14.337Z,94.10
2022-09-16T18:16:41.291Z,93.60
2022-09-16T18:19:08.363Z,93.40
2022-09-16T18:21:36.988Z,94.10
2022-09-16T18:24:04.442Z,94.30
2022-09-16T18:26:34.785Z,93.70
2022-09-16T18:29:10.761Z,95.10
2022-09-16T18:31:38.793Z,95.10
2022-09-16T18:34:05.906Z,96.30
2022-09-16T18:36:35.094Z,95.20
2022-09-16T18:39:01.974Z,96.40
2022-09-16T18:41:31.321Z,95.50
2022-09-16T18:43:59.425Z,95.50
2022-09-16T18:46:27.456Z,95.30
2022-09-16T18:48:54.367Z,95.70
2022-09-16T18:51:28.401Z,95.40
2022-09-16T18:53:57.861Z,94.70
2022-09-16T18:56:25.488Z,94.60
2022-09-16T18:59:19.807Z,95.70
2022-09-16T19:01:42.268Z,95.30
2022-09-16T19:04:11.266Z,95.80
2022-09-16T19:06:39.356Z,96.70
2022-09-16T19:09:07.198Z,96.20
2022-09-16T19:11:35.134Z,97.10
2022-09-16T19:14:02.924Z,97.90
2022-09-16T19:16:30.172Z,98.00
2022-09-16T19:18:56.748Z,98.30
2022-09-16T19:21:23.811Z,99.00
2022-09-16T19:23:58.748Z,99.60
2022-09-16T19:26:26.176Z,99.90
2022-09-16T19:28:52.803Z,99.10
2022-09-16T19:31:19.394Z,99.50
2022-09-16T19:33:46.077Z,99.90
2022-09-16T19:36:13.929Z,99.90
2022-09-16T19:38:41.003Z,99.90
2022-09-16T19:41:08.341Z,99.90
2022-09-16T19:43:35.083Z,99.90
2022-09-16T19:46:09.337Z,99.90
2022-09-16T19:48:37.491Z,99.90
2022-09-16T19:51:05.074Z,99.90
2022-09-16T19:53:31.874Z,99.60
2022-09-16T19:55:59.575Z,99.90
2022-09-16T19:58:26.924Z,99.90
2022-09-16T20:01:00.344Z,99.20
2022-09-16T20:03:29.179Z,99.10
2022-09-16T20:06:06.682Z,99.50
2022-09-16T20:08:33.947Z,99.20
2022-09-16T20:11:07.891Z,99.00
2022-09-16T20:13:35.945Z,99.50
2022-09-16T20:16:03.504Z,99.90
2022-09-16T20:18:31.251Z,97.90
2022-09-16T20:21:02.148Z,98.10
2022-09-16T20:23:29.127Z,96.70
2022-09-16T20:25:56.806Z,97.70
2022-09-16T20:28:23.399Z,96.70
2022-09-16T20:30:50.387Z,97.00
2022-09-16T20:33:17.326Z,97.00
2022-09-16T20:35:43.894Z,96.60
2022-09-16T20:38:10.462Z,95.90
2022-09-16T20:40:37.026Z,95.80
2022-09-16T20:43:03.618Z,95.70
2022-09-16T20:45:30.252Z,95.50
2022-09-16T20:47:56.937Z,95.80
2022-09-16T20:50:23.509Z,95.90
2022-09-16T20:53:12.615Z,96.10
2022-09-16T20:55:39.542Z,96.30
2022-09-16T20:58:07.039Z,97.60
2022-09-16T21:00:33.630Z,97.10
2022-09-16T21:03:00.877Z,96.00
2022-09-16T21:05:27.544Z,95.50
2022-09-16T21:07:56.168Z,96.60
2022-09-16T21:10:22.856Z,96.10
2022-09-16T21:12:51.013Z,96.40
2022-09-16T21:15:18.082Z,96.60
2022-09-16T21:17:44.646Z,96.90
2022-09-16T21:20:11.313Z,95.90
2022-09-16T21:22:38.455Z,95.20
2022-09-16T21:25:05.303Z,95.70
2022-09-16T21:27:33.067Z,95.60
2022-09-16T21:29:59.658Z,96.00
2022-09-16T21:32:26.323Z,95.80
2022-09-16T21:34:52.896Z,96.40
2022-09-16T21:37:19.614Z,95.90
2022-09-16T21:39:46.251Z,95.70
2022-09-16T21:42:12.955Z,96.50
2022-09-16T21:44:39.476Z,97.20
2022-09-16T21:47:11.502Z,96.40
2022-09-16T21:49:38.109Z,96.50
2022-09-16T21:52:04.796Z,96.70
2022-09-16T21:54:32.315Z,98.60
2022-09-16T21:56:59.645Z,97.00
2022-09-16T21:59:26.256Z,96.40
2022-09-16T22:01:53.206Z,96.80
2022-09-16T22:04:23.424Z,96.60
2022-09-16T22:06:51.053Z,96.60
2022-09-16T22:09:17.827Z,98.80
2022-09-16T22:11:44.683Z,96.40
2022-09-16T22:14:12.237Z,98.40
2022-09-16T22:16:39.385Z,96.50
2022-09-16T22:19:07.787Z,97.30
2022-09-16T22:21:35.820Z,96.30
2022-09-16T22:24:02.517Z,97.50
2022-09-16T22:26:29.872Z,98.90
2022-09-16T22:28:56.570Z,96.30
2022-09-16T22:31:31.313Z,96.30
2022-09-16T22:33:59.149Z,96.20
2022-09-16T22:36:26.267Z,96.60
2022-09-16T22:38:54.329Z,97.50
2022-09-16T22:41:21.407Z,97.40
2022-09-16T22:43:48.928Z,99.00
2022-09-16T22:46:20.093Z,97.50
2022-09-16T22:48:46.857Z,97.00
2022-09-16T22:51:14.722Z,97.00
2022-09-16T22:53:41.749Z,96.90
2022-09-16T22:56:13.036Z,96.60
2022-09-16T22:58:39.938Z,96.60
2022-09-16T23:01:08.846Z,97.20
2022-09-16T23:03:35.953Z,96.50
2022-09-16T23:06:03.997Z,97.00
2022-09-16T23:08:30.948Z,97.40
2022-09-16T23:10:57.521Z,96.50
2022-09-16T23:13:24.160Z,96.30
2022-09-16T23:15:55.577Z,96.50
2022-09-16T23:18:22.362Z,96.30
2022-09-16T23:20:58.825Z,96.40
2022-09-16T23:23:25.964Z,96.50
2022-09-16T23:25:52.512Z,96.20
2022-09-16T23:28:19.165Z,97.00
2022-09-16T23:30:45.911Z,96.00
2022-09-16T23:33:12.469Z,96.80
2022-09-16T23:35:39.080Z,96.50
2022-09-16T23:38:05.693Z,96.30
2022-09-16T23:40:35.768Z,95.80
2022-09-16T23:43:02.535Z,96.80
2022-09-16T23:45:29.142Z,96.10
2022-09-16T23:47:55.809Z,96.80
2022-09-16T23:50:22.458Z,97.90
2022-09-16T23:52:49.214Z,96.60
2022-09-16T23:55:16.150Z,96.40
2022-09-16T23:57:42.897Z,96.00
